sensor_id;sensor_type;location;lat;lon;timestamp;temperature;humidity
30244;DHT22;61465;53.652;9.792;2022-09-09T00:01:30;15.00;97.80
30244;DHT22;61465;53.652;9.792;2022-09-09T00:04:15;15.00;97.70
30244;DHT22;61465;53.652;9.792;2022-09-09T00:06:44;15.00;97.80
30244;DHT22;61465;53.652;9.792;2022-09-09T00:09:15;15.00;97.80
30244;DHT22;61465;53.652;9.792;2022-09-09T00:12:15;15.00;97.90
30244;DHT22;61465;53.652;9.792;2022-09-09T00:15:14;15.10;97.80
30244;DHT22;61465;53.652;9.792;2022-09-09T00:17:48;15.10;97.70
30244;DHT22;61465;53.652;9.792;2022-09-09T00:20:21;15.10;97.90
30244;DHT22;61465;53.652;9.792;2022-09-09T00:23:44;15.10;97.90
30244;DHT22;61465;53.652;9.792;2022-09-09T00:26:00;15.10;97.90
30244;DHT22;61465;53.652;9.792;2022-09-09T00:28:27;15.10;97.90
30244;DHT22;61465;53.652;9.792;2022-09-09T00:31:04;15.10;98.00
30244;DHT22;61465;53.652;9.792;2022-09-09T00:33:34;15.10;98.00
30244;DHT22;61465;53.652;9.792;2022-09-09T00:36:01;15.20;98.00
30244;DHT22;61465;53.652;9.792;2022-09-09T00:38:35;15.20;98.00
30244;DHT22;61465;53.652;9.792;2022-09-09T00:41:34;15.20;98.10
30244;DHT22;61465;53.652;9.792;2022-09-09T00:46:38;15.20;98.10
30244;DHT22;61465;53.652;9.792;2022-09-09T00:49:39;15.20;98.10
30244;DHT22;61465;53.652;9.792;2022-09-09T00:57:34;15.30;98.10
30244;DHT22;61465;53.652;9.792;2022-09-09T01:00:22;15.30;98.20
30244;DHT22;61465;53.652;9.792;2022-09-09T01:03:18;15.30;98.10
30244;DHT22;61465;53.652;9.792;2022-09-09T01:14:49;15.20;98.00
30244;DHT22;61465;53.652;9.792;2022-09-09T01:17:26;15.20;98.00
30244;DHT22;61465;53.652;9.792;2022-09-09T01:28:16;15.20;98.00
30244;DHT22;61465;53.652;9.792;2022-09-09T01:30:44;15.10;98.00
30244;DHT22;61465;53.652;9.792;2022-09-09T01:33:14;15.10;98.00
30244;DHT22;61465;53.652;9.792;2022-09-09T01:35:57;15.10;98.00
30244;DHT22;61465;53.652;9.792;2022-09-09T01:38:26;15.10;98.00
30244;DHT22;61465;53.652;9.792;2022-09-09T01:40:53;15.00;97.90
30244;DHT22;61465;53.652;9.792;2022-09-09T01:43:22;15.00;97.90
30244;DHT22;61465;53.652;9.792;2022-09-09T01:45:52;15.00;97.90
30244;DHT22;61465;53.652;9.792;2022-09-09T01:48:19;15.00;97.90
30244;DHT22;61465;53.652;9.792;2022-09-09T01:50:45;15.00;97.80
30244;DHT22;61465;53.652;9.792;2022-09-09T01:53:11;14.90;97.80
30244;DHT22;61465;53.652;9.792;2022-09-09T01:55:39;14.90;97.80
30244;DHT22;61465;53.652;9.792;2022-09-09T02:00:45;14.90;97.80
30244;DHT22;61465;53.652;9.792;2022-09-09T02:03:27;14.90;97.80
30244;DHT22;61465;53.652;9.792;2022-09-09T02:11:24;14.80;97.60
30244;DHT22;61465;53.652;9.792;2022-09-09T02:13:54;14.70;97.60
30244;DHT22;61465;53.652;9.792;2022-09-09T02:16:27;14.70;97.60
30244;DHT22;61465;53.652;9.792;2022-09-09T02:19:19;14.70;97.60
30244;DHT22;61465;53.652;9.792;2022-09-09T02:21:52;14.70;97.50
30244;DHT22;61465;53.652;9.792;2022-09-09T02:24:19;14.60;97.50
30244;DHT22;61465;53.652;9.792;2022-09-09T02:26:46;14.60;97.50
30244;DHT22;61465;53.652;9.792;2022-09-09T02:29:21;14.60;97.50
30244;DHT22;61465;53.652;9.792;2022-09-09T02:31:49;14.50;97.60
30244;DHT22;61465;53.652;9.792;2022-09-09T02:34:17;14.50;97.60
30244;DHT22;61465;53.652;9.792;2022-09-09T02:36:45;14.50;97.60
30244;DHT22;61465;53.652;9.792;2022-09-09T02:39:13;14.40;97.60
30244;DHT22;61465;53.652;9.792;2022-09-09T02:41:42;14.40;97.60
30244;DHT22;61465;53.652;9.792;2022-09-09T02:44:16;14.40;97.50
30244;DHT22;61465;53.652;9.792;2022-09-09T02:47:10;14.40;97.60
30244;DHT22;61465;53.652;9.792;2022-09-09T02:50:03;14.30;97.50
30244;DHT22;61465;53.652;9.792;2022-09-09T02:55:25;14.30;97.60
30244;DHT22;61465;53.652;9.792;2022-09-09T02:57:55;14.30;97.60
30244;DHT22;61465;53.652;9.792;2022-09-09T03:00:26;14.30;97.60
30244;DHT22;61465;53.652;9.792;2022-09-09T03:02:53;14.20;97.60
30244;DHT22;61465;53.652;9.792;2022-09-09T03:05:20;14.20;97.60
30244;DHT22;61465;53.652;9.792;2022-09-09T03:07:46;14.20;97.50
30244;DHT22;61465;53.652;9.792;2022-09-09T03:10:12;14.10;97.50
30244;DHT22;61465;53.652;9.792;2022-09-09T03:12:38;14.10;97.50
30244;DHT22;61465;53.652;9.792;2022-09-09T03:15:05;14.10;97.50
30244;DHT22;61465;53.652;9.792;2022-09-09T03:17:31;14.10;97.60
30244;DHT22;61465;53.652;9.792;2022-09-09T03:19:56;14.00;97.50
30244;DHT22;61465;53.652;9.792;2022-09-09T03:22:24;14.10;97.60
30244;DHT22;61465;53.652;9.792;2022-09-09T03:24:51;14.00;97.60
30244;DHT22;61465;53.652;9.792;2022-09-09T03:27:16;14.00;97.60
30244;DHT22;61465;53.652;9.792;2022-09-09T03:29:42;14.00;97.70
30244;DHT22;61465;53.652;9.792;2022-09-09T03:32:09;13.90;97.70
30244;DHT22;61465;53.652;9.792;2022-09-09T03:34:36;13.90;97.70
30244;DHT22;61465;53.652;9.792;2022-09-09T03:37:04;13.90;97.70
30244;DHT22;61465;53.652;9.792;2022-09-09T03:39:31;13.90;97.80
30244;DHT22;61465;53.652;9.792;2022-09-09T03:41:56;13.90;97.80
30244;DHT22;61465;53.652;9.792;2022-09-09T03:44:22;13.90;97.80
30244;DHT22;61465;53.652;9.792;2022-09-09T03:46:47;13.90;97.80
30244;DHT22;61465;53.652;9.792;2022-09-09T03:49:13;13.90;97.80
30244;DHT22;61465;53.652;9.792;2022-09-09T03:51:38;13.90;97.70
30244;DHT22;61465;53.652;9.792;2022-09-09T03:54:06;13.80;97.70
30244;DHT22;61465;53.652;9.792;2022-09-09T03:56:33;13.90;97.70
30244;DHT22;61465;53.652;9.792;2022-09-09T03:58:59;13.90;97.70
30244;DHT22;61465;53.652;9.792;2022-09-09T04:01:25;13.80;97.70
30244;DHT22;61465;53.652;9.792;2022-09-09T04:03:50;13.80;97.70
30244;DHT22;61465;53.652;9.792;2022-09-09T04:06:18;13.80;97.70
30244;DHT22;61465;53.652;9.792;2022-09-09T04:08:45;13.80;97.80
30244;DHT22;61465;53.652;9.792;2022-09-09T04:11:14;13.80;97.80
30244;DHT22;61465;53.652;9.792;2022-09-09T04:13:40;13.80;97.80
30244;DHT22;61465;53.652;9.792;2022-09-09T04:16:07;13.70;97.70
30244;DHT22;61465;53.652;9.792;2022-09-09T04:18:33;13.70;97.70
30244;DHT22;61465;53.652;9.792;2022-09-09T04:20:59;13.70;97.70
30244;DHT22;61465;53.652;9.792;2022-09-09T04:23:26;13.70;97.80
30244;DHT22;61465;53.652;9.792;2022-09-09T04:25:55;13.70;97.80
30244;DHT22;61465;53.652;9.792;2022-09-09T04:28:23;13.60;97.80
30244;DHT22;61465;53.652;9.792;2022-09-09T04:30:48;13.70;97.90
30244;DHT22;61465;53.652;9.792;2022-09-09T04:33:14;13.70;97.90
30244;DHT22;61465;53.652;9.792;2022-09-09T04:35:46;13.70;97.90
30244;DHT22;61465;53.652;9.792;2022-09-09T04:38:12;13.70;97.90
30244;DHT22;61465;53.652;9.792;2022-09-09T04:40:38;13.60;97.90
30244;DHT22;61465;53.652;9.792;2022-09-09T04:43:08;13.70;98.00
30244;DHT22;61465;53.652;9.792;2022-09-09T04:45:34;13.70;98.10
30244;DHT22;61465;53.652;9.792;2022-09-09T04:47:59;13.60;98.10
30244;DHT22;61465;53.652;9.792;2022-09-09T04:50:25;13.60;98.10
30244;DHT22;61465;53.652;9.792;2022-09-09T04:52:51;13.60;98.10
30244;DHT22;61465;53.652;9.792;2022-09-09T04:55:16;13.70;98.10
30244;DHT22;61465;53.652;9.792;2022-09-09T04:57:42;13.70;98.20
30244;DHT22;61465;53.652;9.792;2022-09-09T05:00:08;13.70;98.20
30244;DHT22;61465;53.652;9.792;2022-09-09T05:02:38;13.70;98.30
30244;DHT22;61465;53.652;9.792;2022-09-09T05:05:05;13.70;98.40
30244;DHT22;61465;53.652;9.792;2022-09-09T05:07:30;13.70;98.40
30244;DHT22;61465;53.652;9.792;2022-09-09T05:09:56;13.70;98.40
30244;DHT22;61465;53.652;9.792;2022-09-09T05:12:23;13.80;98.40
30244;DHT22;61465;53.652;9.792;2022-09-09T05:14:52;13.80;98.40
30244;DHT22;61465;53.652;9.792;2022-09-09T05:17:18;13.70;98.40
30244;DHT22;61465;53.652;9.792;2022-09-09T05:19:44;13.80;98.40
30244;DHT22;61465;53.652;9.792;2022-09-09T05:22:10;13.80;98.40
30244;DHT22;61465;53.652;9.792;2022-09-09T05:24:37;13.90;98.50
30244;DHT22;61465;53.652;9.792;2022-09-09T05:27:04;13.90;98.50
30244;DHT22;61465;53.652;9.792;2022-09-09T05:29:31;13.80;98.40
30244;DHT22;61465;53.652;9.792;2022-09-09T05:31:59;13.90;98.50
30244;DHT22;61465;53.652;9.792;2022-09-09T05:34:24;13.90;98.50
30244;DHT22;61465;53.652;9.792;2022-09-09T05:36:50;13.90;98.50
30244;DHT22;61465;53.652;9.792;2022-09-09T05:39:17;13.90;98.50
30244;DHT22;61465;53.652;9.792;2022-09-09T05:41:43;13.90;98.60
30244;DHT22;61465;53.652;9.792;2022-09-09T05:44:08;13.90;98.60
30244;DHT22;61465;53.652;9.792;2022-09-09T05:46:34;13.90;98.60
30244;DHT22;61465;53.652;9.792;2022-09-09T05:48:59;14.00;98.60
30244;DHT22;61465;53.652;9.792;2022-09-09T05:51:26;14.00;98.60
30244;DHT22;61465;53.652;9.792;2022-09-09T05:53:53;14.00;98.70
30244;DHT22;61465;53.652;9.792;2022-09-09T05:56:22;14.10;98.70
30244;DHT22;61465;53.652;9.792;2022-09-09T05:58:49;14.20;99.00
30244;DHT22;61465;53.652;9.792;2022-09-09T06:01:21;14.20;98.90
30244;DHT22;61465;53.652;9.792;2022-09-09T06:03:48;14.30;98.90
30244;DHT22;61465;53.652;9.792;2022-09-09T06:06:16;14.40;99.00
30244;DHT22;61465;53.652;9.792;2022-09-09T06:08:44;14.50;99.00
30244;DHT22;61465;53.652;9.792;2022-09-09T06:11:16;14.60;99.10
30244;DHT22;61465;53.652;9.792;2022-09-09T06:13:42;14.60;99.20
30244;DHT22;61465;53.652;9.792;2022-09-09T06:16:10;14.60;99.20
30244;DHT22;61465;53.652;9.792;2022-09-09T06:18:41;14.70;99.20
30244;DHT22;61465;53.652;9.792;2022-09-09T06:21:16;14.70;99.30
30244;DHT22;61465;53.652;9.792;2022-09-09T06:23:42;14.80;99.30
30244;DHT22;61465;53.652;9.792;2022-09-09T06:26:11;14.90;99.30
30244;DHT22;61465;53.652;9.792;2022-09-09T06:28:38;14.90;99.50
30244;DHT22;61465;53.652;9.792;2022-09-09T06:31:06;15.00;99.30
30244;DHT22;61465;53.652;9.792;2022-09-09T06:33:36;15.00;99.30
30244;DHT22;61465;53.652;9.792;2022-09-09T06:36:13;15.10;99.40
30244;DHT22;61465;53.652;9.792;2022-09-09T06:38:40;15.10;99.30
30244;DHT22;61465;53.652;9.792;2022-09-09T06:41:10;15.10;99.30
30244;DHT22;61465;53.652;9.792;2022-09-09T06:43:36;15.20;99.30
30244;DHT22;61465;53.652;9.792;2022-09-09T06:46:03;15.10;99.30
30244;DHT22;61465;53.652;9.792;2022-09-09T06:48:29;15.30;99.30
30244;DHT22;61465;53.652;9.792;2022-09-09T06:51:17;15.30;99.30
30244;DHT22;61465;53.652;9.792;2022-09-09T06:53:45;15.30;99.40
30244;DHT22;61465;53.652;9.792;2022-09-09T06:58:40;15.40;99.40
30244;DHT22;61465;53.652;9.792;2022-09-09T07:01:17;15.40;99.40
30244;DHT22;61465;53.652;9.792;2022-09-09T07:03:45;15.50;99.50
30244;DHT22;61465;53.652;9.792;2022-09-09T07:06:16;15.60;99.60
30244;DHT22;61465;53.652;9.792;2022-09-09T07:08:52;15.70;99.60
30244;DHT22;61465;53.652;9.792;2022-09-09T07:11:22;15.70;99.60
30244;DHT22;61465;53.652;9.792;2022-09-09T07:13:48;15.70;99.60
30244;DHT22;61465;53.652;9.792;2022-09-09T07:16:19;15.80;99.60
30244;DHT22;61465;53.652;9.792;2022-09-09T07:18:46;15.90;99.70
30244;DHT22;61465;53.652;9.792;2022-09-09T07:21:13;15.90;99.60
30244;DHT22;61465;53.652;9.792;2022-09-09T07:23:39;16.00;99.60
30244;DHT22;61465;53.652;9.792;2022-09-09T07:26:17;16.10;99.60
30244;DHT22;61465;53.652;9.792;2022-09-09T07:28:45;16.20;99.60
30244;DHT22;61465;53.652;9.792;2022-09-09T07:31:22;16.20;99.60
30244;DHT22;61465;53.652;9.792;2022-09-09T07:33:48;16.20;99.60
30244;DHT22;61465;53.652;9.792;2022-09-09T07:36:19;16.30;99.60
30244;DHT22;61465;53.652;9.792;2022-09-09T07:38:50;16.40;99.70
30244;DHT22;61465;53.652;9.792;2022-09-09T07:41:25;16.40;99.70
30244;DHT22;61465;53.652;9.792;2022-09-09T07:43:53;16.50;99.70
30244;DHT22;61465;53.652;9.792;2022-09-09T07:46:25;16.60;99.70
30244;DHT22;61465;53.652;9.792;2022-09-09T07:48:53;16.70;99.60
30244;DHT22;61465;53.652;9.792;2022-09-09T07:51:40;16.80;99.70
30244;DHT22;61465;53.652;9.792;2022-09-09T07:54:08;16.80;99.50
30244;DHT22;61465;53.652;9.792;2022-09-09T07:56:38;16.90;99.70
30244;DHT22;61465;53.652;9.792;2022-09-09T07:59:04;16.90;99.70
30244;DHT22;61465;53.652;9.792;2022-09-09T08:01:37;16.90;99.60
30244;DHT22;61465;53.652;9.792;2022-09-09T08:04:12;16.90;99.60
30244;DHT22;61465;53.652;9.792;2022-09-09T08:06:44;17.00;99.70
30244;DHT22;61465;53.652;9.792;2022-09-09T08:09:12;17.10;99.80
30244;DHT22;61465;53.652;9.792;2022-09-09T08:11:38;17.20;99.80
30244;DHT22;61465;53.652;9.792;2022-09-09T08:14:05;17.40;99.90
30244;DHT22;61465;53.652;9.792;2022-09-09T08:16:32;17.50;99.90
30244;DHT22;61465;53.652;9.792;2022-09-09T08:18:58;17.60;99.30
30244;DHT22;61465;53.652;9.792;2022-09-09T08:21:27;17.60;99.90
30244;DHT22;61465;53.652;9.792;2022-09-09T08:23:54;17.80;99.90
30244;DHT22;61465;53.652;9.792;2022-09-09T08:26:22;18.00;99.90
30244;DHT22;61465;53.652;9.792;2022-09-09T08:28:53;18.10;99.90
30244;DHT22;61465;53.652;9.792;2022-09-09T08:31:25;18.20;99.90
30244;DHT22;61465;53.652;9.792;2022-09-09T08:33:51;18.20;99.90
30244;DHT22;61465;53.652;9.792;2022-09-09T08:36:19;18.30;99.80
30244;DHT22;61465;53.652;9.792;2022-09-09T08:38:52;18.30;99.90
30244;DHT22;61465;53.652;9.792;2022-09-09T08:57:51;18.50;99.60
30244;DHT22;61465;53.652;9.792;2022-09-09T09:00:18;18.50;99.60
30244;DHT22;61465;53.652;9.792;2022-09-09T09:03:00;18.50;99.60
30244;DHT22;61465;53.652;9.792;2022-09-09T09:10:49;18.70;99.60
30244;DHT22;61465;53.652;9.792;2022-09-09T09:13:26;18.70;99.60
30244;DHT22;61465;53.652;9.792;2022-09-09T09:16:02;18.80;99.60
30244;DHT22;61465;53.652;9.792;2022-09-09T09:18:30;18.80;99.30
30244;DHT22;61465;53.652;9.792;2022-09-09T09:21:08;18.80;99.30
30244;DHT22;61465;53.652;9.792;2022-09-09T09:24:02;18.80;99.20
30244;DHT22;61465;53.652;9.792;2022-09-09T09:26:33;18.80;99.30
30244;DHT22;61465;53.652;9.792;2022-09-09T09:29:08;18.80;99.30
30244;DHT22;61465;53.652;9.792;2022-09-09T09:31:35;18.80;99.30
30244;DHT22;61465;53.652;9.792;2022-09-09T09:34:00;18.80;99.30
30244;DHT22;61465;53.652;9.792;2022-09-09T09:36:37;18.90;99.40
30244;DHT22;61465;53.652;9.792;2022-09-09T09:39:04;18.90;99.50
30244;DHT22;61465;53.652;9.792;2022-09-09T09:41:41;18.80;99.60
30244;DHT22;61465;53.652;9.792;2022-09-09T09:46:45;18.90;99.30
30244;DHT22;61465;53.652;9.792;2022-09-09T09:49:11;19.00;99.60
30244;DHT22;61465;53.652;9.792;2022-09-09T09:51:39;19.10;99.70
30244;DHT22;61465;53.652;9.792;2022-09-09T09:56:41;19.40;99.90
30244;DHT22;61465;53.652;9.792;2022-09-09T10:01:54;19.70;99.90
30244;DHT22;61465;53.652;9.792;2022-09-09T10:04:22;19.80;99.90
30244;DHT22;61465;53.652;9.792;2022-09-09T10:06:49;19.90;99.90
30244;DHT22;61465;53.652;9.792;2022-09-09T10:09:25;20.10;99.90
30244;DHT22;61465;53.652;9.792;2022-09-09T10:12:00;20.20;99.90
30244;DHT22;61465;53.652;9.792;2022-09-09T10:17:13;20.40;99.90
30244;DHT22;61465;53.652;9.792;2022-09-09T10:19:50;20.50;99.90
30244;DHT22;61465;53.652;9.792;2022-09-09T10:22:28;20.50;99.90
30244;DHT22;61465;53.652;9.792;2022-09-09T10:30:44;20.80;99.90
30244;DHT22;61465;53.652;9.792;2022-09-09T10:36:06;21.00;99.60
30244;DHT22;61465;53.652;9.792;2022-09-09T10:38:42;21.00;99.60
30244;DHT22;61465;53.652;9.792;2022-09-09T10:50:05;21.00;98.90
30244;DHT22;61465;53.652;9.792;2022-09-09T10:55:25;21.20;98.80
30244;DHT22;61465;53.652;9.792;2022-09-09T10:57:54;21.20;98.50
30244;DHT22;61465;53.652;9.792;2022-09-09T11:03:03;21.30;98.40
30244;DHT22;61465;53.652;9.792;2022-09-09T11:05:49;21.30;98.20
30244;DHT22;61465;53.652;9.792;2022-09-09T11:11:03;21.40;97.70
30244;DHT22;61465;53.652;9.792;2022-09-09T11:18:48;21.30;98.40
30244;DHT22;61465;53.652;9.792;2022-09-09T11:21:24;21.30;97.90
30244;DHT22;61465;53.652;9.792;2022-09-09T11:23:59;21.30;97.70
30244;DHT22;61465;53.652;9.792;2022-09-09T11:26:33;21.40;97.70
30244;DHT22;61465;53.652;9.792;2022-09-09T11:29:19;21.30;97.60
30244;DHT22;61465;53.652;9.792;2022-09-09T11:38:15;21.40;97.50
30244;DHT22;61465;53.652;9.792;2022-09-09T11:40:43;21.30;97.40
30244;DHT22;61465;53.652;9.792;2022-09-09T11:43:13;21.20;97.10
30244;DHT22;61465;53.652;9.792;2022-09-09T11:45:41;21.20;97.20
30244;DHT22;61465;53.652;9.792;2022-09-09T11:48:25;21.20;97.00
30244;DHT22;61465;53.652;9.792;2022-09-09T11:51:11;21.20;97.30
30244;DHT22;61465;53.652;9.792;2022-09-09T11:54:00;21.20;97.20
30244;DHT22;61465;53.652;9.792;2022-09-09T11:57:14;21.20;97.00
30244;DHT22;61465;53.652;9.792;2022-09-09T11:59:26;21.30;97.10
30244;DHT22;61465;53.652;9.792;2022-09-09T12:04:32;21.50;97.00
30244;DHT22;61465;53.652;9.792;2022-09-09T12:07:24;21.60;96.90
30244;DHT22;61465;53.652;9.792;2022-09-09T12:12:43;21.40;96.80
30244;DHT22;61465;53.652;9.792;2022-09-09T12:17:46;21.40;96.70
30244;DHT22;61465;53.652;9.792;2022-09-09T12:20:17;21.40;96.70
30244;DHT22;61465;53.652;9.792;2022-09-09T12:25:57;21.30;97.00
30244;DHT22;61465;53.652;9.792;2022-09-09T12:28:39;21.30;96.90
30244;DHT22;61465;53.652;9.792;2022-09-09T12:31:17;21.40;96.90
30244;DHT22;61465;53.652;9.792;2022-09-09T12:33:46;21.60;96.90
30244;DHT22;61465;53.652;9.792;2022-09-09T12:36:21;21.60;96.70
30244;DHT22;61465;53.652;9.792;2022-09-09T12:38:48;21.70;96.80
30244;DHT22;61465;53.652;9.792;2022-09-09T12:41:24;21.80;96.90
30244;DHT22;61465;53.652;9.792;2022-09-09T12:43:51;21.80;96.70
30244;DHT22;61465;53.652;9.792;2022-09-09T12:46:40;22.00;96.60
30244;DHT22;61465;53.652;9.792;2022-09-09T12:52:04;22.10;96.50
30244;DHT22;61465;53.652;9.792;2022-09-09T12:54:32;22.10;96.30
30244;DHT22;61465;53.652;9.792;2022-09-09T12:56:58;22.20;96.20
30244;DHT22;61465;53.652;9.792;2022-09-09T12:59:30;22.30;96.10
30244;DHT22;61465;53.652;9.792;2022-09-09T13:02:00;22.30;95.90
30244;DHT22;61465;53.652;9.792;2022-09-09T13:04:26;22.20;95.70
30244;DHT22;61465;53.652;9.792;2022-09-09T13:06:52;22.30;95.80
30244;DHT22;61465;53.652;9.792;2022-09-09T13:09:18;22.30;95.80
30244;DHT22;61465;53.652;9.792;2022-09-09T13:11:50;22.30;95.90
30244;DHT22;61465;53.652;9.792;2022-09-09T13:14:18;22.20;95.90
30244;DHT22;61465;53.652;9.792;2022-09-09T13:16:58;22.10;95.90
30244;DHT22;61465;53.652;9.792;2022-09-09T13:19:24;22.00;95.80
30244;DHT22;61465;53.652;9.792;2022-09-09T13:21:54;22.00;95.80
30244;DHT22;61465;53.652;9.792;2022-09-09T13:24:30;21.90;95.70
30244;DHT22;61465;53.652;9.792;2022-09-09T13:27:05;21.80;95.60
30244;DHT22;61465;53.652;9.792;2022-09-09T13:29:51;21.70;95.60
30244;DHT22;61465;53.652;9.792;2022-09-09T13:32:20;21.70;95.60
30244;DHT22;61465;53.652;9.792;2022-09-09T13:35:00;21.50;95.70
30244;DHT22;61465;53.652;9.792;2022-09-09T13:37:39;21.50;95.90
30244;DHT22;61465;53.652;9.792;2022-09-09T13:40:22;21.40;95.70
30244;DHT22;61465;53.652;9.792;2022-09-09T13:42:52;21.40;95.70
30244;DHT22;61465;53.652;9.792;2022-09-09T13:45:24;21.20;95.60
30244;DHT22;61465;53.652;9.792;2022-09-09T13:47:53;21.00;95.20
30244;DHT22;61465;53.652;9.792;2022-09-09T13:50:24;20.90;94.80
30244;DHT22;61465;53.652;9.792;2022-09-09T13:52:53;20.80;94.90
30244;DHT22;61465;53.652;9.792;2022-09-09T13:55:19;20.70;94.80
30244;DHT22;61465;53.652;9.792;2022-09-09T13:58:03;20.50;94.60
30244;DHT22;61465;53.652;9.792;2022-09-09T14:00:32;20.40;94.40
30244;DHT22;61465;53.652;9.792;2022-09-09T14:02:58;20.30;94.10
30244;DHT22;61465;53.652;9.792;2022-09-09T14:05:27;20.10;94.30
30244;DHT22;61465;53.652;9.792;2022-09-09T14:07:53;20.00;94.30
30244;DHT22;61465;53.652;9.792;2022-09-09T14:10:19;19.90;94.40
30244;DHT22;61465;53.652;9.792;2022-09-09T14:12:45;19.80;94.50
30244;DHT22;61465;53.652;9.792;2022-09-09T14:15:12;19.80;94.70
30244;DHT22;61465;53.652;9.792;2022-09-09T14:17:37;19.70;94.70
30244;DHT22;61465;53.652;9.792;2022-09-09T14:20:05;19.70;94.70
30244;DHT22;61465;53.652;9.792;2022-09-09T14:22:33;19.60;94.80
30244;DHT22;61465;53.652;9.792;2022-09-09T14:24:59;19.50;94.90
30244;DHT22;61465;53.652;9.792;2022-09-09T14:27:24;19.50;95.00
30244;DHT22;61465;53.652;9.792;2022-09-09T14:29:52;19.40;95.10
30244;DHT22;61465;53.652;9.792;2022-09-09T14:32:18;19.40;94.90
30244;DHT22;61465;53.652;9.792;2022-09-09T14:34:44;19.40;95.00
30244;DHT22;61465;53.652;9.792;2022-09-09T14:37:09;19.30;95.10
30244;DHT22;61465;53.652;9.792;2022-09-09T14:39:35;19.30;95.10
30244;DHT22;61465;53.652;9.792;2022-09-09T14:42:00;19.40;95.30
30244;DHT22;61465;53.652;9.792;2022-09-09T14:44:27;19.40;95.30
30244;DHT22;61465;53.652;9.792;2022-09-09T14:46:53;19.30;95.20
30244;DHT22;61465;53.652;9.792;2022-09-09T14:49:19;19.30;95.30
30244;DHT22;61465;53.652;9.792;2022-09-09T14:51:45;19.30;95.30
30244;DHT22;61465;53.652;9.792;2022-09-09T14:54:11;19.40;95.40
30244;DHT22;61465;53.652;9.792;2022-09-09T14:56:37;19.40;95.30
30244;DHT22;61465;53.652;9.792;2022-09-09T14:59:03;19.30;95.40
30244;DHT22;61465;53.652;9.792;2022-09-09T15:01:30;19.40;95.40
30244;DHT22;61465;53.652;9.792;2022-09-09T15:03:57;19.40;95.40
30244;DHT22;61465;53.652;9.792;2022-09-09T15:06:25;19.40;95.50
30244;DHT22;61465;53.652;9.792;2022-09-09T15:08:51;19.30;95.40
30244;DHT22;61465;53.652;9.792;2022-09-09T15:11:17;19.30;95.40
30244;DHT22;61465;53.652;9.792;2022-09-09T15:13:43;19.30;95.60
30244;DHT22;61465;53.652;9.792;2022-09-09T15:16:17;19.30;95.50
30244;DHT22;61465;53.652;9.792;2022-09-09T15:18:44;19.40;95.50
30244;DHT22;61465;53.652;9.792;2022-09-09T15:21:15;19.30;95.40
30244;DHT22;61465;53.652;9.792;2022-09-09T15:23:42;19.30;95.50
30244;DHT22;61465;53.652;9.792;2022-09-09T15:26:08;19.20;95.50
30244;DHT22;61465;53.652;9.792;2022-09-09T15:28:36;19.30;95.50
30244;DHT22;61465;53.652;9.792;2022-09-09T15:31:06;19.30;95.50
30244;DHT22;61465;53.652;9.792;2022-09-09T15:33:32;19.30;95.50
30244;DHT22;61465;53.652;9.792;2022-09-09T15:35:59;19.20;95.40
30244;DHT22;61465;53.652;9.792;2022-09-09T15:38:24;19.30;95.40
30244;DHT22;61465;53.652;9.792;2022-09-09T15:40:56;19.20;95.50
30244;DHT22;61465;53.652;9.792;2022-09-09T15:43:22;19.30;95.40
30244;DHT22;61465;53.652;9.792;2022-09-09T15:45:52;19.30;95.20
30244;DHT22;61465;53.652;9.792;2022-09-09T15:48:23;19.20;95.50
30244;DHT22;61465;53.652;9.792;2022-09-09T15:51:01;19.30;95.60
30244;DHT22;61465;53.652;9.792;2022-09-09T15:53:28;19.30;95.50
30244;DHT22;61465;53.652;9.792;2022-09-09T15:55:55;19.20;95.50
30244;DHT22;61465;53.652;9.792;2022-09-09T15:58:21;19.30;95.50
30244;DHT22;61465;53.652;9.792;2022-09-09T16:00:46;19.20;95.40
30244;DHT22;61465;53.652;9.792;2022-09-09T16:03:12;19.20;95.60
30244;DHT22;61465;53.652;9.792;2022-09-09T16:05:38;19.20;95.50
30244;DHT22;61465;53.652;9.792;2022-09-09T16:08:03;19.20;95.50
30244;DHT22;61465;53.652;9.792;2022-09-09T16:10:29;19.10;95.40
30244;DHT22;61465;53.652;9.792;2022-09-09T16:12:56;19.00;95.30
30244;DHT22;61465;53.652;9.792;2022-09-09T16:15:21;19.00;95.30
30244;DHT22;61465;53.652;9.792;2022-09-09T16:17:48;19.00;95.30
30244;DHT22;61465;53.652;9.792;2022-09-09T16:20:14;18.90;95.20
30244;DHT22;61465;53.652;9.792;2022-09-09T16:22:40;18.90;95.30
30244;DHT22;61465;53.652;9.792;2022-09-09T16:25:06;18.80;95.10
30244;DHT22;61465;53.652;9.792;2022-09-09T16:27:31;18.80;95.20
30244;DHT22;61465;53.652;9.792;2022-09-09T16:29:57;18.90;95.30
30244;DHT22;61465;53.652;9.792;2022-09-09T16:32:23;18.90;95.40
30244;DHT22;61465;53.652;9.792;2022-09-09T16:34:48;18.80;95.40
30244;DHT22;61465;53.652;9.792;2022-09-09T16:37:14;18.80;95.30
30244;DHT22;61465;53.652;9.792;2022-09-09T16:39:39;18.80;95.20
30244;DHT22;61465;53.652;9.792;2022-09-09T16:42:05;18.80;95.30
30244;DHT22;61465;53.652;9.792;2022-09-09T16:44:30;18.80;95.30
30244;DHT22;61465;53.652;9.792;2022-09-09T16:46:56;18.70;95.30
30244;DHT22;61465;53.652;9.792;2022-09-09T16:49:21;18.70;95.20
30244;DHT22;61465;53.652;9.792;2022-09-09T16:51:50;18.70;95.10
30244;DHT22;61465;53.652;9.792;2022-09-09T16:54:18;18.70;95.00
30244;DHT22;61465;53.652;9.792;2022-09-09T16:56:46;18.60;95.00
30244;DHT22;61465;53.652;9.792;2022-09-09T16:59:14;18.50;94.90
30244;DHT22;61465;53.652;9.792;2022-09-09T17:01:41;18.50;94.90
30244;DHT22;61465;53.652;9.792;2022-09-09T17:04:09;18.40;94.90
30244;DHT22;61465;53.652;9.792;2022-09-09T17:06:36;18.50;95.00
30244;DHT22;61465;53.652;9.792;2022-09-09T17:09:09;18.50;95.00
30244;DHT22;61465;53.652;9.792;2022-09-09T17:11:36;18.50;95.20
30244;DHT22;61465;53.652;9.792;2022-09-09T17:14:03;18.40;95.30
30244;DHT22;61465;53.652;9.792;2022-09-09T17:16:30;18.40;95.00
30244;DHT22;61465;53.652;9.792;2022-09-09T17:18:57;18.30;95.10
30244;DHT22;61465;53.652;9.792;2022-09-09T17:21:25;18.30;94.90
30244;DHT22;61465;53.652;9.792;2022-09-09T17:23:51;18.30;95.10
30244;DHT22;61465;53.652;9.792;2022-09-09T17:26:19;18.30;95.10
30244;DHT22;61465;53.652;9.792;2022-09-09T17:28:45;18.20;95.00
30244;DHT22;61465;53.652;9.792;2022-09-09T17:31:13;18.10;94.80
30244;DHT22;61465;53.652;9.792;2022-09-09T17:33:41;18.10;94.90
30244;DHT22;61465;53.652;9.792;2022-09-09T17:36:13;18.10;94.90
30244;DHT22;61465;53.652;9.792;2022-09-09T17:38:40;18.10;94.90
30244;DHT22;61465;53.652;9.792;2022-09-09T17:41:18;18.10;94.90
30244;DHT22;61465;53.652;9.792;2022-09-09T17:43:44;18.00;94.90
30244;DHT22;61465;53.652;9.792;2022-09-09T17:46:20;18.10;94.90
30244;DHT22;61465;53.652;9.792;2022-09-09T17:48:47;17.90;95.00
30244;DHT22;61465;53.652;9.792;2022-09-09T17:51:16;18.00;95.00